South Florida, Florida
Current Conditions -  °F | °C
As of 1:53 PM on Monday 22 Dec 2014 (Local Time) from KFLL Reporting Station
Few Clouds Few Clouds  
Wind Chill: 80°   Ceiling: Unl
Heat Index: 82°   Visibility: 10mi
Dew Point: 67°   Wind: 13mph
Humidity: 64%   Direction: 160°SSE
Pressure: 29.95"   Gusts: NA
Location:  26.01°N, 80.15°W
Report Text: KFLL 221853Z 16011KT 10SM FEW028 27/19 A2995 RMK AO2 SLP141 T02670194
Loading
Personal Weather Stations






























Interactive Weather Map New forecast layout! Learn more

10-Day Weather Forecast

Advertisements
Track Severe Weather on mobile